• Join FlightAware (Why Join?)
  • Login
  • US Flag GB Flag 
21:32 EDT


 

Airport Tracker/Info


-or-


 

Live Flight TrackerFlight Track Log ✈ AAL963 ✈ 21-Jun-2013 ✈ KDFW - SBGR / GRU

Flight Track Log - Related Links

Times and Time Zones

All times are in EDT time to prevent confusion due to time zone crossing. See the AAL963 flight status page for this flight to view local times or setup timezone preferences in your user account.

Time Position Orientation Groundspeed Altitude Reporting Facility
EDT Latitude Longitude Course Direction KTS MPH feet Rate Location/Type
21:34 32.8580 -97.0560 193° South 180 207 2,000  Level FlightAware
21:34 32.8360 -97.0630 195° South 204 235 2,300 720 Climbing FlightAware
21:35 32.8240 -97.0660 192° South 216 249 2,500 960 Climbing FlightAware
21:35 32.8150 -97.0680 191° South 225 259 2,700 1,500 Climbing FlightAware
21:35 32.7700 -97.0650 177° South 246 283 3,700 1,860 Climbing FlightAware
21:36 32.7460 -97.0630 176° South 248 285 4,500 2,340 Climbing FlightAware
21:36 32.7230 -97.0600 174° South 251 289 5,300 2,160 Climbing FlightAware
21:37 32.6930 -97.0550 172° South 257 296 6,200 2,040 Climbing FlightAware
21:37 32.6800 -97.0470 153° Southeast 262 302 6,600 1,980 Climbing FlightAware
21:37 32.6440 -97.0240 152° Southeast 267 307 7,700 1,980 Climbing FlightAware
21:38 32.6100 -97.0060 156° South 275 316 8,700 1,980 Climbing FlightAware
21:38 32.5990 -97.0000 155° Southeast 278 320 9,000 2,460 Climbing FlightAware
21:39 32.5440 -96.9670 153° Southeast 290 334 11,000 2,160 Climbing FlightAware
21:39 32.4940 -96.9380 154° Southeast 309 356 12,200 1,320 Climbing FlightAware
21:40 32.4390 -96.9070 155° Southeast 343 395 12,800 960 Climbing FlightAware
21:41 32.3730 -96.8680 153° Southeast 372 428 13,600 1,140 Climbing FlightAware
21:42 32.2950 -96.8220 154° Southeast 396 456 14,600 1,440 Climbing FlightAware
21:42 32.2090 -96.7860 160° South 407 468 16,000 1,740 Climbing FlightAware
21:43 32.1277 -96.7566 163° South 415 478 17,300 1,620 Climbing FlightAware ADS-B
21:44 32.0465 -96.7253 162° South 425 489 18,400 1,500 Climbing FlightAware ADS-B
21:44 31.9859 -96.7016 162° South 430 495 19,200 1,620 Climbing FlightAware ADS-B
21:45 31.9278 -96.6795 162° South 435 501 20,100 1,500 Climbing FlightAware ADS-B
21:45 31.8667 -96.6564 162° South 441 507 20,800 1,380 Climbing FlightAware ADS-B
21:46 31.8038 -96.6306 161° South 448 516 21,600 1,380 Climbing FlightAware ADS-B
21:47 31.7427 -96.6052 161° South 453 521 22,300 1,440 Climbing FlightAware ADS-B
21:47 31.6827 -96.5806 161° South 456 525 23,100 1,500 Climbing FlightAware ADS-B
21:48 31.6154 -96.5531 161° South 460 529 23,900 1,260 Climbing FlightAware ADS-B
21:49 31.4913 -96.5030 161° South 471 542 25,100 1,140 Climbing FlightAware ADS-B
21:49 31.4288 -96.4798 162° South 474 545 25,700 1,140 Climbing FlightAware ADS-B
21:50 31.3633 -96.4559 163° South 476 548 26,300 1,020 Climbing FlightAware ADS-B
21:50 31.2992 -96.4321 162° South 481 554 26,800 960 Climbing FlightAware ADS-B
21:51 31.2337 -96.4077 162° South 486 559 27,300 900 Climbing FlightAware ADS-B
21:51 31.2178 -96.4015 162° South 488 562 27,400 840 Climbing FlightAware ADS-B
21:51 31.1905 -96.3866 155° Southeast 493 567 27,600 1,080 Climbing FlightAware ADS-B
21:51 31.1737 -96.3743 148° Southeast 495 570 27,800 1,260 Climbing FlightAware ADS-B
21:51 31.1404 -96.3399 134° Southeast 498 573 28,200 1,080 Climbing FlightAware ADS-B
21:52 31.1216 -96.3115 128° Southeast 500 575 28,400 840 Climbing FlightAware ADS-B
21:53 31.0395 -96.1783 126° Southeast 508 585 29,300 840 Climbing FlightAware ADS-B
21:53 30.9985 -96.1114 126° Southeast 512 589 29,700 960 Climbing FlightAware ADS-B
21:55 30.8714 -95.9054 126° Southeast 510 587 31,300 1,020 Climbing FlightAware ADS-B
21:55 30.8297 -95.8383 126° Southeast 510 587 31,800 600 Climbing FlightAware ADS-B
21:57 30.6570 -95.5609 126° Southeast 506 582 33,000 240 Climbing FlightAware ADS-B
21:59 30.4854 -95.2872 126° Southeast 507 583 33,000  Level FlightAware ADS-B
22:00 30.4003 -95.1524 126° Southeast 510 587 33,000  Level FlightAware ADS-B
22:01 30.3555 -95.0816 126° Southeast 510 587 33,000  Level FlightAware ADS-B
22:01 30.3133 -95.0149 126° Southeast 511 588 33,000  Level FlightAware ADS-B
22:02 30.2707 -94.9476 126° Southeast 512 589 33,000  Level FlightAware ADS-B
22:03 30.1859 -94.8143 126° Southeast 513 590 33,000  Level FlightAware ADS-B
22:05 30.0162 -94.5486 126° Southeast 516 594 33,000  Level FlightAware ADS-B
22:05 29.9731 -94.4814 127° Southeast 516 594 33,000  Level FlightAware ADS-B
22:06 29.9292 -94.4132 127° Southeast 516 594 33,000  Level FlightAware ADS-B
22:07 29.8860 -94.3461 127° Southeast 516 594 33,000  Level FlightAware ADS-B
22:08 29.7518 -94.1384 127° Southeast 515 593 33,000  Level FlightAware ADS-B
22:09 29.7102 -94.0753 127° Southeast 516 594 33,000  Level FlightAware ADS-B
22:09 29.6939 -94.0541 132° Southeast 517 595 33,000  Level FlightAware ADS-B
22:09 29.6622 -94.0191 136° Southeast 518 596 33,000  Level FlightAware ADS-B
22:10 29.6051 -93.9671 142° Southeast 517 595 33,000  Level FlightAware ADS-B
22:10 29.5456 -93.9162 143° Southeast 517 595 33,000  Level FlightAware ADS-B
22:11 29.4812 -93.8617 144° Southeast 516 594 33,000  Level FlightAware ADS-B
22:11 29.4058 -93.7979 144° Southeast 515 593 33,000  Level FlightAware ADS-B
22:12 29.3474 -93.7482 143° Southeast 516 594 33,000  Level FlightAware ADS-B
22:12 29.2873 -93.6973 144° Southeast 516 594 33,000  Level FlightAware ADS-B
22:13 29.2282 -93.6470 143° Southeast 517 595 33,000  Level FlightAware ADS-B
22:13 29.1692 -93.5971 144° Southeast 517 595 33,000  Level FlightAware ADS-B
22:14 29.1113 -93.5480 143° Southeast 517 595 33,000  Level FlightAware ADS-B
22:14 29.0536 -93.4993 144° Southeast 518 596 33,000  Level FlightAware ADS-B
22:15 28.9937 -93.4488 144° Southeast 518 596 33,000  Level FlightAware ADS-B
22:15 28.9347 -93.3991 144° Southeast 518 596 33,000  Level FlightAware ADS-B
22:16 28.8620 -93.3379 144° Southeast 517 595 33,000 -60 Level FlightAware ADS-B
22:17 28.7411 -93.2347 144° Southeast 515 593 32,900 -60 Descending Houston Center
22:18 28.6267 -93.1392 144° Southeast 512 589 32,900  Level Houston Center
22:19 28.5125 -93.0439 144° Southeast 511 588 33,000  Climbing Houston Center
22:20 28.3975 -92.9478 144° Southeast 512 589 32,900 -60 Descending Houston Center
22:21 28.2831 -92.8533 144° Southeast 510 587 32,900  Level Houston Center
22:22 28.1697 -92.7594 144° Southeast 507 583 32,900  Level Houston Center
22:23 28.0561 -92.6653 144° Southeast 507 583 32,900  Level Houston Center
22:24 27.9419 -92.5728 144° Southeast 504 580 33,000  Climbing Houston Center
22:25 27.8294 -92.4772 143° Southeast 506 582 33,000  Level Houston Center
22:26 27.7142 -92.3875 145° Southeast 504 580 33,000 -60 Level Houston Center
22:27 27.6000 -92.2950 144° Southeast 506 582 32,900  Descending Houston Center
22:28 27.4636 -92.1833 144° Southeast 505 581 33,000  Climbing Houston Center
22:29 27.3489 -92.0900 144° Southeast 505 581 32,900 -60 Descending Houston Center
22:30 27.2336 -91.9969 144° Southeast 509 586 32,900  Level Houston Center
22:31 27.1183 -91.9053 145° Southeast 510 587 32,900  Level Houston Center
22:32 27.0031 -91.8103 144° Southeast 511 588 33,000  Climbing Houston Center
22:33 26.8856 -91.7217 146° Southeast 510 587 32,900  Descending Houston Center
22:34 26.7681 -91.6322 146° Southeast 511 588 33,000  Climbing Houston Center
22:36 26.6474 -91.5312 143° Southeast  Level FlightAware Approximate
22:43 25.8806 -90.9162 145° Southeast  Level FlightAware Approximate
22:44 25.7701 -90.8302 145° Southeast  Level FlightAware Approximate
22:45 25.6595 -90.7444 145° Southeast  Level FlightAware Approximate
22:46 25.5491 -90.6583 145° Southeast  Level FlightAware Approximate
22:47 25.4387 -90.5724 145° Southeast  Level FlightAware Approximate
22:48 25.3282 -90.4867 145° Southeast  Level FlightAware Approximate
22:49 25.2176 -90.4011 145° Southeast  Level FlightAware Approximate
22:50 25.1071 -90.3156 145° Southeast  Level FlightAware Approximate
22:51 24.9964 -90.2303 145° Southeast  Level FlightAware Approximate
22:52 24.8858 -90.1452 145° Southeast  Level FlightAware Approximate
22:53 24.7750 -90.0602 145° Southeast  Level FlightAware Approximate
22:54 24.6642 -89.9754 145° Southeast  Level FlightAware Approximate
22:55 24.5534 -89.8907 145° Southeast  Level FlightAware Approximate
22:56 24.4497 -89.7970 135° Southeast  Level FlightAware Approximate
22:57 24.3536 -89.6934 136° Southeast  Level FlightAware Approximate
22:58 24.2574 -89.5900 136° Southeast  Level FlightAware Approximate
22:59 24.1612 -89.4866 136° Southeast  Level FlightAware Approximate
22:59 24.0000 -89.4740 136° Southeast 509 586 33,000  Level FlightAware
23:00 23.9150 -89.4100 145° Southeast 509 586 33,000  Level FlightAware
23:00 23.8200 -89.3390 146° Southeast 509 586 33,000  Level FlightAware
23:01 23.7300 -89.2710 145° Southeast 510 587 33,000  Level FlightAware
23:02 23.6450 -89.2070 145° Southeast 509 586 33,000  Level FlightAware
23:03 23.5490 -89.1350 145° Southeast 511 588 33,000  Level FlightAware
23:03 23.4940 -89.0940 146° Southeast 511 588 33,000  Level FlightAware
23:04 23.4170 -89.0360 145° Southeast 511 588 33,000  Level FlightAware
23:05 23.2820 -88.9360 146° Southeast 512 589 33,000  Level FlightAware
23:06 23.2040 -88.8770 145° Southeast 512 589 33,000  Level FlightAware
23:06 23.1370 -88.8280 146° Southeast 513 590 33,000  Level FlightAware
23:07 23.0500 -88.7630 145° Southeast 514 592 33,000  Level FlightAware
23:08 22.9620 -88.6980 146° Southeast 513 590 33,000  Level FlightAware
23:08 22.8730 -88.6320 146° Southeast 514 592 33,000  Level FlightAware
23:09 22.7890 -88.5700 146° Southeast 513 590 33,000  Level FlightAware
23:11 22.6140 -88.4390 145° Southeast 513 590 33,000  Level FlightAware
23:12 22.6190 -88.4440 317° Northwest 513 590 33,000  Level FlightAware
23:12 22.4340 -88.2630 138° Southeast 511 588 33,000  Level FlightAware
23:13 22.3660 -88.1940 137° Southeast 508 585 33,000  Level FlightAware
23:14 22.2610 -88.0880 137° Southeast 507 583 33,000  Level FlightAware
23:14 22.1760 -88.0020 137° Southeast 506 582 33,000  Level FlightAware
23:16 22.0450 -87.8670 136° Southeast 505 581 33,000  Level FlightAware
23:17 22.0000 -87.8240 138° Southeast 505 581 33,000  Level FlightAware
23:17 21.9240 -87.7470 137° Southeast 505 581 33,000  Level FlightAware
23:18 21.8600 -87.6830 137° Southeast 503 579 33,000  Level FlightAware
23:19 21.7780 -87.6010 137° Southeast 504 580 33,000  Level FlightAware
23:19 21.7240 -87.5480 138° Southeast 505 581 33,000  Level FlightAware
23:20 21.6520 -87.4770 137° Southeast 505 581 33,000  Level FlightAware
23:21 21.5770 -87.4020 137° Southeast 507 583 33,000  Level FlightAware
23:22 21.4120 -87.2390 137° Southeast 509 586 33,000  Level FlightAware
23:22 21.3420 -87.1710 138° Southeast 510 587 33,000  Level FlightAware
23:23 21.2740 -87.1030 137° Southeast 510 587 33,000  Level FlightAware
23:24 21.1950 -87.0260 138° Southeast 509 586 33,000  Level FlightAware
23:25 21.1240 -86.9560 137° Southeast 510 587 33,000  Level FlightAware
23:25 21.0510 -86.8840 137° Southeast 510 587 33,000  Level FlightAware
23:26 20.9740 -86.8090 138° Southeast 510 587 33,000  Level FlightAware
23:27 20.9040 -86.7420 138° Southeast 511 588 33,000  Level FlightAware
23:27 20.8260 -86.6650 137° Southeast 510 587 33,000  Level FlightAware
23:28 20.7590 -86.6010 138° Southeast 510 587 33,000  Level FlightAware
23:29 20.6820 -86.5260 138° Southeast 509 586 33,000  Level FlightAware
23:29 20.6140 -86.4600 138° Southeast 509 586 33,000  Level FlightAware
23:30 20.5410 -86.3900 138° Southeast 510 587 33,000  Level FlightAware
23:31 20.4790 -86.3290 137° Southeast 510 587 33,000  Level FlightAware
23:32 20.3630 -86.2180 138° Southeast 510 587 33,000  Level FlightAware
23:33 20.2980 -86.1540 137° Southeast 510 587 33,000  Level FlightAware
23:33 20.2250 -86.0860 139° Southeast 509 586 33,000  Level FlightAware
23:34 20.1480 -86.0120 138° Southeast 508 585 33,000  Level FlightAware
23:35 20.0690 -85.9360 138° Southeast 509 586 33,000  Level FlightAware
23:35 19.9960 -85.8670 138° Southeast 507 583 33,000  Level FlightAware
23:36 19.9290 -85.8030 138° Southeast 507 583 33,000  Level FlightAware
23:37 19.8450 -85.7240 138° Southeast 506 582 33,000  Level FlightAware
23:37 19.7740 -85.6580 139° Southeast 507 583 33,000  Level FlightAware
23:38 19.7010 -85.5890 138° Southeast 507 583 33,000  Level FlightAware
23:39 19.6500 -85.5400 138° Southeast 508 585 33,000  Level FlightAware
23:39 19.5790 -85.4720 138° Southeast 508 585 33,000  Level FlightAware
23:40 19.5350 -85.4330 140° Southeast 510 587 33,000  Level FlightAware
23:41 19.4310 -85.3360 139° Southeast 511 588 33,000  Level FlightAware
23:41 19.3550 -85.2650 139° Southeast 511 588 33,000  Level FlightAware
23:42 19.2790 -85.1930 138° Southeast 512 589 33,000  Level FlightAware
23:43 19.2250 -85.1420 138° Southeast 512 589 33,000  Level FlightAware
23:43 19.1560 -85.0760 138° Southeast 512 589 33,000  Level FlightAware
23:44 19.1010 -85.0230 138° Southeast 512 589 33,000  Level FlightAware
23:45 18.9810 -84.9160 140° Southeast 516 594 33,000  Level FlightAware
23:46 18.9090 -84.8470 138° Southeast 516 594 33,000  Level FlightAware
23:46 18.8550 -84.7950 138° Southeast 516 594 33,000  Level FlightAware
23:47 18.7840 -84.7280 138° Southeast 516 594 33,000  Level FlightAware
23:48 18.7300 -84.6760 138° Southeast 516 594 33,000  Level FlightAware
23:49 18.6570 -84.6080 139° Southeast 516 594 33,000  Level FlightAware
23:49 18.6030 -84.5560 138° Southeast 516 594 33,000  Level FlightAware
23:50 18.5430 -84.4990 138° Southeast 516 594 33,000  Level FlightAware
23:51 18.4720 -84.4310 138° Southeast 516 594 33,000  Level FlightAware
23:51 18.4160 -84.3780 138° Southeast 516 594 33,000  Level FlightAware
23:52 18.3460 -84.3130 139° Southeast 516 594 33,000  Level FlightAware
23:53 18.2770 -84.2470 138° Southeast 516 594 33,000  Level FlightAware
23:53 18.2230 -84.1950 138° Southeast 516 594 33,000  Level FlightAware
23:54 18.1490 -84.1250 138° Southeast 516 594 33,000  Level FlightAware
23:57 17.9271 -83.9088 137° Southeast  Level Estimated
23:58 17.8284 -83.8128 137° Southeast  Level Estimated
23:59 17.7297 -83.7170 137° Southeast  Level Estimated
00:00 17.6309 -83.6212 137° Southeast  Level Estimated
00:01 17.5321 -83.5256 137° Southeast  Level Estimated
00:02 17.4332 -83.4301 137° Southeast  Level Estimated
00:03 17.3343 -83.3347 137° Southeast  Level Estimated
00:04 17.2353 -83.2394 137° Southeast  Level Estimated
00:05 17.1363 -83.1442 137° Southeast  Level Estimated
00:06 17.0372 -83.0491 137° Southeast  Level Estimated
00:07 16.9381 -82.9541 137° Southeast  Level Estimated
00:08 16.8390 -82.8592 137° Southeast  Level Estimated
00:09 16.7398 -82.7643 138° Southeast  Level Estimated
00:10 16.6406 -82.6696 138° Southeast  Level Estimated
00:11 16.5413 -82.5750 138° Southeast  Level Estimated
00:12 16.4419 -82.4805 138° Southeast  Level Estimated
00:13 16.3426 -82.3861 138° Southeast  Level Estimated
00:14 16.2432 -82.2918 138° Southeast  Level Estimated
00:15 16.1437 -82.1975 138° Southeast  Level Estimated
00:16 16.0443 -82.1034 138° Southeast  Level Estimated
00:17 15.9447 -82.0094 138° Southeast  Level Estimated
00:18 15.8452 -81.9154 138° Southeast  Level Estimated
00:19 15.7456 -81.8216 138° Southeast  Level Estimated
00:20 15.6459 -81.7278 138° Southeast  Level Estimated
00:21 15.5462 -81.6341 138° Southeast  Level Estimated
00:22 15.4465 -81.5406 138° Southeast  Level Estimated
00:23 15.3467 -81.4471 138° Southeast  Level Estimated
00:24 15.2469 -81.3537 138° Southeast  Level Estimated
00:25 15.1471 -81.2604 138° Southeast  Level Estimated
00:26 15.0472 -81.1672 138° Southeast  Level Estimated
00:27 14.9473 -81.0740 138° Southeast  Level Estimated
00:28 14.8473 -80.9810 138° Southeast  Level Estimated
00:29 14.7473 -80.8880 138° Southeast  Level Estimated
00:30 14.6473 -80.7951 138° Southeast  Level Estimated
00:31 14.5472 -80.7023 138° Southeast  Level Estimated
00:32 14.4471 -80.6096 138° Southeast  Level Estimated
00:33 14.3469 -80.5170 138° Southeast  Level Estimated
00:34 14.2468 -80.4245 138° Southeast  Level Estimated
00:35 14.1466 -80.3320 138° Southeast  Level Estimated
00:36 14.0463 -80.2396 138° Southeast  Level Estimated
00:37 13.9460 -80.1473 138° Southeast  Level Estimated
00:38 13.8457 -80.0551 138° Southeast  Level Estimated
00:39 13.7454 -79.9630 138° Southeast  Level Estimated
00:40 13.6450 -79.8709 138° Southeast  Level Estimated
00:41 13.5445 -79.7789 138° Southeast  Level Estimated
00:42 13.4441 -79.6870 138° Southeast  Level Estimated
00:43 13.3436 -79.5952 138° Southeast  Level Estimated
00:44 13.2431 -79.5035 138° Southeast  Level Estimated
00:45 13.1425 -79.4118 138° Southeast  Level Estimated
00:46 13.0420 -79.3202 138° Southeast  Level Estimated
00:47 12.9413 -79.2287 138° Southeast  Level Estimated
00:48 12.8407 -79.1372 138° Southeast  Level Estimated
00:49 12.7400 -79.0458 138° Southeast  Level Estimated
00:50 12.6393 -78.9545 138° Southeast  Level Estimated
00:51 12.5386 -78.8633 139° Southeast  Level Estimated
00:52 12.4378 -78.7721 139° Southeast  Level Estimated
00:53 12.3370 -78.6811 139° Southeast  Level Estimated
00:54 12.2361 -78.5900 139° Southeast  Level Estimated
00:55 12.1353 -78.4991 139° Southeast  Level Estimated
00:56 12.0344 -78.4082 139° Southeast  Level Estimated
00:57 11.9334 -78.3174 139° Southeast  Level Estimated
00:58 11.8325 -78.2266 139° Southeast  Level Estimated
00:59 11.7315 -78.1360 139° Southeast  Level Estimated
01:00 11.6301 -78.0450 139° Southeast  Level Estimated
01:01 11.5287 -77.9542 139° Southeast  Level Estimated
01:02 11.4273 -77.8633 139° Southeast  Level Estimated
01:03 11.3258 -77.7726 139° Southeast  Level Estimated
01:04 11.2243 -77.6819 139° Southeast  Level Estimated
01:05 11.1228 -77.5913 139° Southeast  Level Estimated
01:06 11.0213 -77.5008 139° Southeast  Level Estimated
01:07 10.9197 -77.4103 139° Southeast  Level Estimated
01:08 10.8177 -77.3195 139° Southeast  Level Estimated
01:09 10.7158 -77.2288 139° Southeast  Level Estimated
01:10 10.6137 -77.1382 139° Southeast  Level Estimated
01:11 10.5117 -77.0476 139° Southeast  Level Estimated
01:12 10.4096 -76.9571 139° Southeast  Level Estimated
01:13 10.3075 -76.8667 139° Southeast  Level Estimated
01:14 10.2054 -76.7763 139° Southeast  Level Estimated
01:15 10.1032 -76.6859 139° Southeast  Level Estimated
01:16 10.0011 -76.5956 139° Southeast  Level Estimated
01:17 9.8989 -76.5054 139° Southeast  Level Estimated
01:18 9.7967 -76.4153 139° Southeast  Level Estimated
01:19 9.6944 -76.3251 139° Southeast  Level Estimated
01:20 9.5921 -76.2351 139° Southeast  Level Estimated
01:21 9.4899 -76.1451 139° Southeast  Level Estimated
01:22 9.3876 -76.0551 139° Southeast  Level Estimated
01:23 9.2852 -75.9652 139° Southeast  Level Estimated
01:24 9.1828 -75.8754 139° Southeast  Level Estimated
01:25 9.0805 -75.7856 139° Southeast  Level Estimated
01:26 8.9781 -75.6959 139° Southeast  Level Estimated
01:27 8.8757 -75.6062 139° Southeast  Level Estimated
01:28 8.7732 -75.5165 139° Southeast  Level Estimated
01:29 8.6707 -75.4269 139° Southeast  Level Estimated
01:30 8.5682 -75.3374 139° Southeast  Level Estimated
01:31 8.4657 -75.2479 139° Southeast  Level Estimated
01:32 8.3632 -75.1585 139° Southeast  Level Estimated
01:33 8.2607 -75.0691 139° Southeast  Level Estimated
01:34 8.1581 -74.9797 139° Southeast  Level Estimated
01:35 8.0555 -74.8904 139° Southeast  Level Estimated
01:36 7.9529 -74.8011 139° Southeast  Level Estimated
01:36 6.9800 -73.8770 139° Southeast 501 577 37,000  Level FlightAware
01:37 7.8503 -74.7119 139° Southeast  Level Estimated
01:37 6.8960 -73.8220 147° Southeast 499 574 37,000  Level FlightAware
01:38 6.8080 -73.7660 148° Southeast 495 570 37,000  Level FlightAware
01:38 6.7310 -73.7160 147° Southeast 492 566 37,000  Level FlightAware
01:39 6.6510 -73.6650 148° Southeast 490 564 37,000  Level FlightAware
01:40 6.5730 -73.6150 148° Southeast 490 564 37,000  Level FlightAware
01:40 6.4830 -73.5580 148° Southeast 489 563 37,000  Level FlightAware
01:41 6.4040 -73.5070 147° Southeast 489 563 37,000  Level FlightAware
01:42 6.3300 -73.4600 148° Southeast 490 564 37,000  Level FlightAware
01:43 6.2510 -73.4090 147° Southeast 491 565 37,000  Level FlightAware
01:43 6.1650 -73.3540 148° Southeast 492 566 37,000  Level FlightAware
01:44 6.0620 -73.2880 147° Southeast 493 567 37,000  Level FlightAware
01:45 6.0020 -73.2490 147° Southeast 493 567 37,000  Level FlightAware
01:46 5.9350 -73.2050 147° Southeast 493 567 37,000  Level FlightAware
01:46 5.8570 -73.1540 147° Southeast 493 567 37,000  Level FlightAware
01:47 5.7980 -73.1160 147° Southeast 493 567 37,000  Level FlightAware
01:48 5.6520 -73.0270 149° Southeast 496 571 37,000  Level FlightAware
01:48 5.5640 -72.9710 148° Southeast 496 571 37,000  Level FlightAware
01:49 5.4820 -72.9190 148° Southeast 495 570 37,000  Level FlightAware
01:50 5.4140 -72.8760 148° Southeast 494 568 37,000  Level FlightAware
01:50 5.3240 -72.8180 147° Southeast 493 567 37,000  Level FlightAware
01:51 5.2480 -72.7700 148° Southeast 492 566 37,000  Level FlightAware
01:52 5.1630 -72.7160 148° Southeast 491 565 37,000  Level FlightAware
01:53 5.0620 -72.6510 147° Southeast 489 563 37,000  Level FlightAware
01:53 5.0040 -72.6130 147° Southeast 489 563 37,000  Level FlightAware
01:54 4.9270 -72.5620 147° Southeast 489 563 37,000  Level FlightAware
01:55 4.8700 -72.5260 148° Southeast 489 563 37,000  Level FlightAware
01:56 4.7960 -72.4770 147° Southeast 489 563 37,000  Level FlightAware
01:56 4.7380 -72.4390 147° Southeast 489 563 37,000  Level FlightAware
01:57 4.6600 -72.3890 147° Southeast 489 563 37,000  Level FlightAware
01:58 4.6020 -72.3510 147° Southeast 489 563 37,000  Level FlightAware
01:58 4.5230 -72.3000 147° Southeast 489 563 37,000  Level FlightAware
01:59 4.4640 -72.2610 147° Southeast 489 563 37,000  Level FlightAware
02:00 4.3690 -72.1990 147° Southeast 489 563 37,000  Level FlightAware
02:01 4.3090 -72.1600 147° Southeast 489 563 37,000  Level FlightAware
02:01 4.2310 -72.1100 147° Southeast 489 563 37,000  Level FlightAware
02:02 4.1720 -72.0710 147° Southeast 489 563 37,000 -60 Level FlightAware
02:05 3.9214 -71.8530 139° Southeast  Level Estimated
02:06 3.8191 -71.7641 139° Southeast  Level Estimated
02:07 3.7168 -71.6751 139° Southeast  Level Estimated
02:08 3.6144 -71.5862 139° Southeast  Level Estimated
02:09 3.5121 -71.4974 139° Southeast  Level Estimated
02:10 3.4098 -71.4085 139° Southeast  Level Estimated
02:11 3.3074 -71.3197 139° Southeast  Level Estimated
02:12 3.2051 -71.2308 139° Southeast  Level Estimated
02:13 3.1027 -71.1420 139° Southeast  Level Estimated
02:14 3.0003 -71.0533 139° Southeast  Level Estimated
02:15 2.8979 -70.9645 139° Southeast  Level Estimated
02:16 2.7956 -70.8757 139° Southeast  Level Estimated
02:17 2.6932 -70.7870 139° Southeast  Level Estimated
02:18 2.5908 -70.6983 139° Southeast  Level Estimated
02:19 2.4883 -70.6096 139° Southeast  Level Estimated
02:20 2.3859 -70.5209 139° Southeast  Level Estimated
02:21 2.2835 -70.4322 139° Southeast  Level Estimated
02:22 2.1811 -70.3435 139° Southeast  Level Estimated
02:23 2.0787 -70.2549 139° Southeast  Level Estimated
02:24 1.9762 -70.1662 139° Southeast  Level Estimated
02:25 1.8738 -70.0776 139° Southeast  Level Estimated
02:26 1.7714 -69.9890 139° Southeast  Level Estimated
02:27 1.6689 -69.9003 139° Southeast  Level Estimated
02:28 1.5665 -69.8117 139° Southeast  Level Estimated
02:29 1.4640 -69.7231 139° Southeast  Level Estimated
02:30 1.3615 -69.6345 139° Southeast  Level Estimated
02:31 1.2591 -69.5460 139° Southeast  Level Estimated
02:32 1.1566 -69.4574 139° Southeast  Level Estimated
02:33 1.0541 -69.3688 139° Southeast  Level Estimated
02:34 0.9517 -69.2803 139° Southeast  Level Estimated
02:35 0.8492 -69.1917 139° Southeast  Level Estimated
02:36 0.7467 -69.1031 139° Southeast  Level Estimated
02:37 0.6442 -69.0146 139° Southeast  Level Estimated
02:38 0.5418 -68.9261 139° Southeast  Level Estimated
02:39 0.4393 -68.8375 139° Southeast  Level Estimated
02:40 0.3368 -68.7490 139° Southeast  Level Estimated
02:41 0.2343 -68.6604 139° Southeast  Level Estimated
02:42 0.1319 -68.5719 139° Southeast  Level Estimated
02:43 0.0294 -68.4834 139° Southeast  Level Estimated
02:44 -0.0731 -68.3948 139° Southeast  Level Estimated
02:45 -0.1756 -68.3063 139° Southeast  Level Estimated
02:46 -0.2781 -68.2178 139° Southeast  Level Estimated
02:47 -0.3804 -68.1294 139° Southeast  Level Estimated
02:48 -0.4827 -68.0410 139° Southeast  Level Estimated
02:49 -0.5849 -67.9526 139° Southeast  Level Estimated
02:50 -0.6872 -67.8642 139° Southeast  Level Estimated
02:51 -0.7895 -67.7758 139° Southeast  Level Estimated
02:52 -0.8918 -67.6874 139° Southeast  Level Estimated
02:53 -0.9941 -67.5990 139° Southeast  Level Estimated
02:54 -1.0964 -67.5106 139° Southeast  Level Estimated
02:55 -1.1987 -67.4222 139° Southeast  Level Estimated
02:56 -1.3009 -67.3338 139° Southeast  Level Estimated
02:57 -1.4032 -67.2454 139° Southeast  Level Estimated
02:58 -1.5055 -67.1570 139° Southeast  Level Estimated
02:59 -1.6078 -67.0685 139° Southeast  Level Estimated
03:00 -1.7100 -66.9801 139° Southeast  Level Estimated
03:01 -1.8123 -66.8916 139° Southeast  Level Estimated
03:02 -1.9145 -66.8031 139° Southeast  Level Estimated
03:03 -2.0168 -66.7147 139° Southeast  Level Estimated
03:04 -2.1190 -66.6262 139° Southeast  Level Estimated
03:05 -2.2213 -66.5377 139° Southeast  Level Estimated
03:06 -2.3235 -66.4492 139° Southeast  Level Estimated
03:07 -2.4257 -66.3606 139° Southeast  Level Estimated
03:08 -2.5280 -66.2721 139° Southeast  Level Estimated
03:09 -2.6302 -66.1835 139° Southeast  Level Estimated
03:10 -2.7324 -66.0950 139° Southeast  Level Estimated
03:11 -2.8346 -66.0064 139° Southeast  Level Estimated
03:12 -2.9368 -65.9178 139° Southeast  Level Estimated
03:13 -3.0390 -65.8292 139° Southeast  Level Estimated
03:14 -3.1412 -65.7405 139° Southeast  Level Estimated
03:15 -3.2434 -65.6519 139° Southeast  Level Estimated
03:16 -3.3455 -65.5632 139° Southeast  Level Estimated
03:17 -3.4477 -65.4745 139° Southeast  Level Estimated
03:18 -3.5498 -65.3858 139° Southeast  Level Estimated
03:19 -3.6520 -65.2971 139° Southeast  Level Estimated
03:20 -3.7541 -65.2084 139° Southeast  Level Estimated
03:21 -3.8562 -65.1196 139° Southeast  Level Estimated
03:22 -3.9584 -65.0308 139° Southeast  Level Estimated
03:23 -4.0605 -64.9420 139° Southeast  Level Estimated
03:24 -4.1626 -64.8532 139° Southeast  Level Estimated
03:25 -4.2647 -64.7643 139° Southeast  Level Estimated
03:26 -4.3667 -64.6754 139° Southeast  Level Estimated
03:27 -4.4688 -64.5865 139° Southeast  Level Estimated
03:28 -4.5709 -64.4976 139° Southeast  Level Estimated
03:29 -4.6729 -64.4087 139° Southeast  Level Estimated
03:30 -4.7750 -64.3197 139° Southeast  Level Estimated
03:31 -4.8770 -64.2307 139° Southeast  Level Estimated
03:32 -4.9790 -64.1416 139° Southeast  Level Estimated
03:33 -5.0810 -64.0526 139° Southeast  Level Estimated
03:34 -5.1830 -63.9635 139° Southeast  Level Estimated
03:35 -5.2850 -63.8744 139° Southeast  Level Estimated
03:36 -5.3869 -63.7852 139° Southeast  Level Estimated
03:37 -5.4889 -63.6960 139° Southeast  Level Estimated
03:38 -5.5908 -63.6068 139° Southeast  Level Estimated
03:39 -5.6927 -63.5176 139° Southeast  Level Estimated
03:40 -5.7946 -63.4283 139° Southeast  Level Estimated
03:41 -5.8965 -63.3390 139° Southeast  Level Estimated
03:42 -5.9984 -63.2497 139° Southeast  Level Estimated
03:43 -6.1003 -63.1603 139° Southeast  Level Estimated
03:44 -6.2021 -63.0709 139° Southeast  Level Estimated
03:45 -6.3040 -62.9815 139° Southeast  Level Estimated
03:46 -6.4058 -62.8920 139° Southeast  Level Estimated
03:47 -6.5076 -62.8025 139° Southeast  Level Estimated
03:48 -6.6094 -62.7130 139° Southeast  Level Estimated
03:49 -6.7112 -62.6234 139° Southeast  Level Estimated
03:50 -6.8129 -62.5338 139° Southeast  Level Estimated
03:51 -6.9147 -62.4441 139° Southeast  Level Estimated
03:52 -7.0164 -62.3544 139° Southeast  Level Estimated
03:53 -7.1181 -62.2647 139° Southeast  Level Estimated
03:54 -7.2198 -62.1749 139° Southeast  Level Estimated
03:55 -7.3215 -62.0851 139° Southeast  Level Estimated
03:56 -7.4231 -61.9953 139° Southeast  Level Estimated
03:57 -7.5248 -61.9054 139° Southeast  Level Estimated
03:58 -7.6264 -61.8154 139° Southeast  Level Estimated
03:59 -7.7280 -61.7254 139° Southeast  Level Estimated
04:00 -7.8296 -61.6354 139° Southeast  Level Estimated
04:01 -7.9311 -61.5454 139° Southeast  Level Estimated
04:02 -8.0327 -61.4552 139° Southeast  Level Estimated
04:03 -8.1342 -61.3651 139° Southeast  Level Estimated
04:04 -8.2357 -61.2749 139° Southeast  Level Estimated
04:05 -8.3372 -61.1846 139° Southeast  Level Estimated
04:06 -8.4386 -61.0943 139° Southeast  Level Estimated
04:07 -8.5401 -61.0040 139° Southeast  Level Estimated
04:08 -8.6415 -60.9136 139° Southeast  Level Estimated
04:09 -8.7429 -60.8232 139° Southeast  Level Estimated
04:10 -8.8443 -60.7327 139° Southeast  Level Estimated
04:11 -8.9456 -60.6421 139° Southeast  Level Estimated
04:12 -9.0470 -60.5516 139° Southeast  Level Estimated
04:13 -9.1483 -60.4609 139° Southeast  Level Estimated
04:14 -9.2495 -60.3702 139° Southeast  Level Estimated
04:15 -9.3508 -60.2795 139° Southeast  Level Estimated
04:16 -9.4521 -60.1887 139° Southeast  Level Estimated
04:17 -9.5533 -60.0978 138° Southeast  Level Estimated
04:18 -9.6545 -60.0069 138° Southeast  Level Estimated
04:19 -9.7556 -59.9160 138° Southeast  Level Estimated
04:20 -9.8568 -59.8250 138° Southeast  Level Estimated
04:21 -9.9579 -59.7339 138° Southeast  Level Estimated
04:22 -10.0590 -59.6428 138° Southeast  Level Estimated
04:23 -10.1601 -59.5516 138° Southeast  Level Estimated
04:24 -10.2612 -59.4603 138° Southeast  Level Estimated
04:25 -10.3622 -59.3690 138° Southeast  Level Estimated
04:26 -10.4632 -59.2777 138° Southeast  Level Estimated
04:27 -10.5641 -59.1863 138° Southeast  Level Estimated
04:28 -10.6651 -59.0948 138° Southeast  Level Estimated
04:29 -10.7660 -59.0032 138° Southeast  Level Estimated
04:30 -10.8669 -58.9116 138° Southeast  Level Estimated
04:31 -10.9678 -58.8200 138° Southeast  Level Estimated
04:32 -11.0686 -58.7283 138° Southeast  Level Estimated
04:33 -11.1694 -58.6365 138° Southeast  Level Estimated
04:34 -11.2702 -58.5446 138° Southeast  Level Estimated
04:35 -11.3709 -58.4527 138° Southeast  Level Estimated
04:36 -11.4717 -58.3607 138° Southeast  Level Estimated
04:37 -11.5724 -58.2687 138° Southeast  Level Estimated
04:38 -11.6730 -58.1766 138° Southeast  Level Estimated
04:39 -11.7737 -58.0844 138° Southeast  Level Estimated
04:40 -11.8743 -57.9921 138° Southeast  Level Estimated
04:41 -11.9749 -57.8998 138° Southeast  Level Estimated
04:42 -12.0754 -57.8074 138° Southeast  Level Estimated
04:43 -12.1760 -57.7150 138° Southeast  Level Estimated
04:44 -12.2764 -57.6225 138° Southeast  Level Estimated
04:45 -12.3769 -57.5299 138° Southeast  Level Estimated
04:46 -12.4773 -57.4372 138° Southeast  Level Estimated
04:47 -12.5777 -57.3445 138° Southeast  Level Estimated
04:48 -12.6781 -57.2517 138° Southeast  Level Estimated
04:49 -12.7784 -57.1588 138° Southeast  Level Estimated
04:50 -12.8787 -57.0658 138° Southeast  Level Estimated
04:51 -12.9790 -56.9728 138° Southeast  Level Estimated
04:52 -13.0792 -56.8797 138° Southeast  Level Estimated
04:53 -13.1794 -56.7865 138° Southeast  Level Estimated
04:54 -13.2796 -56.6932 138° Southeast  Level Estimated
04:55 -13.3797 -56.5999 138° Southeast  Level Estimated
04:56 -13.4798 -56.5065 138° Southeast  Level Estimated
04:57 -13.5799 -56.4130 138° Southeast  Level Estimated
04:58 -13.6799 -56.3194 138° Southeast  Level Estimated
04:59 -13.7799 -56.2258 138° Southeast  Level Estimated
05:00 -13.8798 -56.1320 138° Southeast  Level Estimated
05:01 -13.9797 -56.0382 138° Southeast  Level Estimated
05:02 -14.0796 -55.9443 138° Southeast  Level Estimated
05:03 -14.1795 -55.8504 138° Southeast  Level Estimated
05:04 -14.2793 -55.7563 138° Southeast  Level Estimated
05:05 -14.3791 -55.6622 138° Southeast  Level Estimated
05:06 -14.4788 -55.5680 138° Southeast  Level Estimated
05:07 -14.5785 -55.4736 138° Southeast  Level Estimated
05:08 -14.6782 -55.3792 138° Southeast  Level Estimated
05:09 -14.7778 -55.2848 137° Southeast  Level Estimated
05:10 -14.8774 -55.1902 137° Southeast  Level Estimated
05:11 -14.9769 -55.0956 137° Southeast  Level Estimated
05:12 -15.0764 -55.0008 137° Southeast  Level Estimated
05:13 -15.1759 -54.9060 137° Southeast  Level Estimated
05:14 -15.2753 -54.8111 137° Southeast  Level Estimated
05:15 -15.3747 -54.7160 137° Southeast  Level Estimated
05:16 -15.4741 -54.6209 137° Southeast  Level Estimated
05:17 -15.5734 -54.5258 137° Southeast  Level Estimated
05:18 -15.6727 -54.4305 137° Southeast  Level Estimated
05:19 -15.7719 -54.3351 137° Southeast  Level Estimated
05:20 -15.8710 -54.2396 137° Southeast  Level Estimated
05:21 -15.9702 -54.1441 137° Southeast  Level Estimated
05:22 -16.0693 -54.0484 137° Southeast  Level Estimated
05:23 -16.1684 -53.9526 137° Southeast  Level Estimated
05:24 -16.2674 -53.8568 137° Southeast  Level Estimated
05:25 -16.3663 -53.7608 137° Southeast  Level Estimated
05:26 -16.4653 -53.6648 137° Southeast  Level Estimated
05:27 -16.5641 -53.5686 137° Southeast  Level Estimated
05:28 -16.6630 -53.4724 137° Southeast  Level Estimated
05:29 -16.7618 -53.3761 137° Southeast  Level Estimated
05:30 -16.8605 -53.2796 137° Southeast  Level Estimated
05:31 -16.9592 -53.1831 137° Southeast  Level Estimated
05:32 -17.0579 -53.0864 137° Southeast  Level Estimated
05:33 -17.1565 -52.9897 137° Southeast  Level Estimated
05:34 -17.2551 -52.8928 137° Southeast  Level Estimated
05:35 -17.3536 -52.7959 137° Southeast  Level Estimated
05:36 -17.4520 -52.6988 137° Southeast  Level Estimated
05:37 -17.5505 -52.6017 137° Southeast  Level Estimated
05:38 -17.6489 -52.5044 137° Southeast  Level Estimated
05:39 -17.7472 -52.4070 137° Southeast  Level Estimated
05:40 -17.8455 -52.3096 137° Southeast  Level Estimated
05:41 -17.9437 -52.2120 137° Southeast  Level Estimated
05:42 -18.0419 -52.1143 137° Southeast  Level Estimated
05:43 -18.1400 -52.0164 137° Southeast  Level Estimated
05:44 -18.2381 -51.9185 137° Southeast  Level Estimated
05:45 -18.3362 -51.8205 137° Southeast  Level Estimated
05:46 -18.4342 -51.7224 136° Southeast  Level Estimated
05:47 -18.5321 -51.6241 136° Southeast  Level Estimated
05:48 -18.6300 -51.5257 136° Southeast  Level Estimated
05:49 -18.7278 -51.4273 136° Southeast  Level Estimated
05:50 -18.8256 -51.3287 136° Southeast  Level Estimated
05:51 -18.9233 -51.2300 136° Southeast  Level Estimated
05:52 -19.0210 -51.1312 136° Southeast  Level Estimated
05:53 -19.1187 -51.0322 136° Southeast  Level Estimated
05:54 -19.2162 -50.9332 136° Southeast  Level Estimated
05:54 -19.3380 -50.3010 136° Southeast 524 603 31,000  Level FlightAware
05:54 -19.4110 -50.2210 134° Southeast 524 603 31,000  Level FlightAware
05:55 -19.3137 -50.8340 136° Southeast  Level Estimated
05:55 -19.4740 -50.1510 134° Southeast 526 605 31,000  Level FlightAware
05:56 -19.5590 -50.0580 134° Southeast 526 605 31,000  Level FlightAware
05:57 -19.6280 -49.9810 134° Southeast 527 606 31,000  Level FlightAware
05:57 -19.6920 -49.9120 135° Southeast 528 608 31,000  Level FlightAware
05:58 -19.7780 -49.8180 134° Southeast 529 609 31,000  Level FlightAware
05:59 -19.8460 -49.7430 134° Southeast 529 609 31,000  Level FlightAware
05:59 -19.9080 -49.6760 135° Southeast 530 610 31,000  Level FlightAware
06:00 -19.9780 -49.5990 134° Southeast 530 610 31,000  Level FlightAware
06:01 -20.0490 -49.5210 134° Southeast 531 611 31,000  Level FlightAware
06:01 -20.1380 -49.4300 136° Southeast 529 609 31,000  Level FlightAware
06:02 -20.2160 -49.3570 139° Southeast 530 610 31,000  Level FlightAware
06:03 -20.2710 -49.3040 138° Southeast 531 611 31,000  Level FlightAware
06:04 -20.3640 -49.2130 137° Southeast 532 612 31,000  Level FlightAware
06:04 -20.4310 -49.1470 137° Southeast 533 613 31,000  Level FlightAware
06:05 -20.5170 -49.0620 137° Southeast 533 613 31,000  Level FlightAware
06:06 -20.5960 -48.9830 137° Southeast 534 615 31,000  Level FlightAware
06:06 -20.6730 -48.9080 138° Southeast 534 615 31,000  Level FlightAware
06:07 -20.7490 -48.8330 137° Southeast 534 615 31,000  Level FlightAware
06:08 -20.8220 -48.7600 137° Southeast 535 616 31,000  Level FlightAware
06:08 -20.8990 -48.6860 138° Southeast 537 618 31,000  Level FlightAware
06:09 -20.9800 -48.6050 137° Southeast 539 620 31,000  Level FlightAware
06:10 -21.0610 -48.5260 138° Southeast 539 620 31,000  Level FlightAware
06:10 -21.1230 -48.4640 137° Southeast 539 620 31,000  Level FlightAware
06:11 -21.1480 -48.4390 137° Southeast 539 620 31,000  Level FlightAware
06:12 -21.2770 -48.3120 137° Southeast 541 623 31,000  Level FlightAware
06:13 -21.3520 -48.2380 137° Southeast 542 624 31,000  Level FlightAware
06:13 -21.4210 -48.1690 137° Southeast 542 624 31,000  Level FlightAware
06:14 -21.4910 -48.0990 137° Southeast 542 624 31,000  Level FlightAware
06:15 -21.5830 -48.0080 137° Southeast 544 626 31,000  Level FlightAware
06:15 -21.6630 -47.9280 137° Southeast 544 626 31,000  Level FlightAware
06:16 -21.7390 -47.8520 137° Southeast 544 626 31,000  Level FlightAware
06:17 -21.8200 -47.7710 137° Southeast 545 627 31,000  Level FlightAware
06:17 -21.9010 -47.6900 137° Southeast 545 627 31,000  Level FlightAware
06:18 -21.9660 -47.6240 137° Southeast 546 628 31,000 -240 Level FlightAware
06:19 -22.0510 -47.5380 137° Southeast 541 623 30,700 -1,260 Descending FlightAware
06:20 -22.1240 -47.4650 137° Southeast 533 613 29,200 -1,440 Descending FlightAware
06:21 -22.1780 -47.4100 137° Southeast 527 606 28,100 -2,220 Descending FlightAware
06:21 -22.3200 -47.2680 137° Southeast 513 590 25,100 -3,360 Descending FlightAware
06:22 -22.3970 -47.1890 137° Southeast 507 583 23,400 -2,160 Descending FlightAware
06:23 -22.4650 -47.1190 136° Southeast 492 566 22,100 -1,740 Descending FlightAware
06:24 -22.5400 -47.0450 138° Southeast 468 539 21,000 -1,740 Descending FlightAware
06:24 -22.6110 -46.9930 146° Southeast 447 514 19,700 -1,560 Descending FlightAware
06:25 -22.6970 -46.9440 152° Southeast 436 502 18,300 -1,860 Descending FlightAware
06:26 -22.7990 -46.8860 152° Southeast 424 488 16,500 -2,520 Descending FlightAware
06:27 -22.8600 -46.8510 152° Southeast 419 482 15,300 -1,920 Descending FlightAware
06:27 -22.9290 -46.8130 153° Southeast 410 472 14,100 -1,800 Descending FlightAware
06:28 -23.0010 -46.7730 153° Southeast 400 460 12,800 -1,800 Descending FlightAware
06:29 -23.0690 -46.7330 152° Southeast 375 432 11,600 -1,500 Descending FlightAware
06:29 -23.1160 -46.6820 135° Southeast 357 411 10,800 -1,380 Descending FlightAware
06:30 -23.1450 -46.6220 118° Southeast 321 369 9,800 -1,620 Descending FlightAware
06:30 -23.1630 -46.5820 116° Southeast 319 367 9,000 -960 Descending FlightAware
06:31 -23.1810 -46.5410 116° Southeast 302 348 8,900 -300 Descending FlightAware
06:31 -23.1900 -46.5190 114° Southeast 302 348 8,800 -840 Descending FlightAware
06:32 -23.2070 -46.4820 117° Southeast 299 344 8,300 -960 Descending FlightAware
06:32 -23.2240 -46.4440 116° Southeast 295 339 7,900 -900 Descending FlightAware
06:32 -23.2360 -46.4170 116° Southeast 286 329 7,600 -1,080 Descending FlightAware
06:33 -23.2470 -46.3920 116° Southeast 283 326 7,200 -960 Descending FlightAware
06:33 -23.2640 -46.3530 115° Southeast 276 318 6,800 -1,020 Descending FlightAware
06:34 -23.2790 -46.3210 117° Southeast 271 312 6,300 -1,020 Descending FlightAware
06:34 -23.2940 -46.2860 115° Southeast 255 293 5,900 -720 Descending FlightAware
06:35 -23.3160 -46.2590 132° Southeast 213 245 5,600 -600 Descending FlightAware
06:35 -23.3250 -46.2580 174° South 198 228 5,500 -780 Descending FlightAware
06:35 -23.3430 -46.2720 216° Southwest 160 184 5,100 -660 Descending FlightAware
06:36 -23.3540 -46.2850 227° Southwest 142 163 4,900 -300 Descending FlightAware
06:36 -23.3620 -46.2970 234° Southwest 146 168 4,900 -720 Level FlightAware
06:37 -23.3760 -46.3100 220° Southwest 152 175 4,400 -900 Descending FlightAware
06:37 -23.3940 -46.3300 226° Southwest 154 177 3,900 -480 Descending FlightAware
06:38 -23.4050 -46.3490 238° Southwest 151 174 3,900  Level FlightAware
06:38 -23.4070 -46.3620 260° West 151 174 3,900  Level FlightAware
06:38 -23.4100 -46.3790 259° West 151 174 3,900 -480 Level FlightAware
06:39 -23.4140 -46.3940 254° West 153 176 3,600 -840 Descending FlightAware
06:39 -23.4190 -46.4120 253° West 143 165 3,300 -720 Descending FlightAware
06:40 -23.4240 -46.4310 254° West 136 157 3,000 -720 Descending FlightAware
06:40 -23.4280 -46.4460 254° West 135 155 2,700 -840 Descending FlightAware
06:41 -23.4340 -46.4690 254° West 120 138 -3,480 Descending FlightAware
06:41 -23.4370 -46.4790 252° West 39 45  Level FlightAware